createdAt,value
2018-05-09T00:00:34.738Z,0.00
2018-05-09T00:01:34.742Z,0.00
2018-05-09T00:02:34.762Z,0.00
2018-05-09T00:03:34.770Z,0.00
2018-05-09T00:04:34.785Z,0.00
2018-05-09T00:05:34.796Z,0.00
2018-05-09T00:06:34.798Z,0.00
2018-05-09T00:07:34.823Z,0.00
2018-05-09T00:08:34.821Z,0.00
2018-05-09T00:09:34.856Z,0.00
2018-05-09T00:10:34.862Z,0.00
2018-05-09T00:11:34.865Z,0.00
2018-05-09T00:12:34.869Z,0.00
2018-05-09T00:13:34.879Z,0.00
2018-05-09T00:14:34.895Z,0.00
2018-05-09T00:15:34.905Z,0.00
2018-05-09T00:16:34.924Z,0.00
2018-05-09T00:17:34.939Z,0.00
2018-05-09T00:18:34.945Z,0.00
2018-05-09T00:19:34.947Z,0.00
2018-05-09T00:20:34.964Z,0.00
2018-05-09T00:21:34.976Z,0.00
2018-05-09T00:22:34.976Z,0.00
2018-05-09T00:23:34.991Z,0.00
2018-05-09T00:24:35.003Z,0.00
2018-05-09T00:25:35.016Z,0.00
2018-05-09T00:26:35.038Z,0.00
2018-05-09T00:27:35.032Z,0.00
2018-05-09T00:28:35.053Z,0.00
2018-05-09T00:29:35.063Z,0.00
2018-05-09T00:30:35.071Z,0.00
2018-05-09T00:31:35.078Z,0.00
2018-05-09T00:32:35.105Z,0.00
2018-05-09T00:33:35.095Z,0.00
2018-05-09T00:34:35.114Z,0.00
2018-05-09T00:35:35.126Z,0.00
2018-05-09T00:36:35.145Z,0.00
2018-05-09T00:37:35.139Z,0.00
2018-05-09T00:38:35.160Z,0.00
2018-05-09T00:39:35.168Z,0.00
2018-05-09T00:40:35.177Z,0.00
2018-05-09T00:41:35.325Z,0.00
2018-05-09T00:42:35.194Z,0.00
2018-05-09T00:43:35.205Z,0.00
2018-05-09T00:44:35.221Z,0.00
2018-05-09T00:45:35.223Z,0.00
2018-05-09T00:46:35.236Z,0.00
2018-05-09T00:47:35.253Z,0.00
2018-05-09T00:48:35.273Z,0.00
2018-05-09T00:49:35.277Z,0.00
2018-05-09T00:50:35.279Z,0.00
2018-05-09T00:51:35.302Z,0.00
2018-05-09T00:52:35.305Z,0.00
2018-05-09T00:53:35.315Z,0.00
2018-05-09T00:54:35.327Z,0.00
2018-05-09T00:55:35.377Z,0.00
2018-05-09T00:56:35.352Z,0.00
2018-05-09T00:57:35.357Z,0.00
2018-05-09T00:58:35.367Z,0.00
2018-05-09T00:59:35.380Z,0.00
2018-05-09T01:00:35.399Z,0.00
2018-05-09T01:01:35.401Z,0.00
2018-05-09T01:02:35.414Z,0.00
2018-05-09T01:03:35.421Z,0.00
2018-05-09T01:04:35.431Z,0.00
2018-05-09T01:05:35.438Z,0.00
2018-05-09T01:06:35.450Z,0.00
2018-05-09T01:07:35.469Z,0.00
2018-05-09T01:08:35.473Z,0.00
2018-05-09T01:09:35.505Z,0.00
2018-05-09T01:10:35.498Z,0.00
2018-05-09T01:11:35.502Z,0.00
2018-05-09T01:12:35.514Z,0.00
2018-05-09T01:13:35.531Z,0.00
2018-05-09T01:14:35.551Z,0.00
2018-05-09T01:15:35.549Z,0.00
2018-05-09T01:16:35.560Z,0.00
2018-05-09T01:17:35.565Z,0.00
2018-05-09T01:18:35.577Z,0.00
2018-05-09T01:19:35.594Z,0.00
2018-05-09T01:20:35.602Z,0.00
2018-05-09T01:21:35.611Z,0.00
2018-05-09T01:22:35.634Z,0.00
2018-05-09T01:23:35.640Z,0.00
2018-05-09T01:24:35.651Z,0.00
2018-05-09T01:25:35.650Z,0.00
2018-05-09T01:26:35.666Z,0.00
2018-05-09T01:27:35.680Z,0.00
2018-05-09T01:28:35.686Z,0.00
2018-05-09T01:29:35.693Z,0.00
2018-05-09T01:30:35.701Z,0.00
2018-05-09T01:31:35.716Z,0.00
2018-05-09T01:32:35.741Z,0.00
2018-05-09T01:33:35.743Z,0.00
2018-05-09T01:34:35.747Z,0.00
2018-05-09T01:35:35.758Z,0.00
2018-05-09T01:36:35.771Z,0.00
2018-05-09T01:37:35.794Z,0.00
2018-05-09T01:38:35.789Z,0.00
2018-05-09T01:39:35.805Z,0.00
2018-05-09T01:40:35.810Z,0.00
2018-05-09T01:41:35.829Z,0.00
2018-05-09T01:42:35.830Z,0.00
2018-05-09T01:43:35.854Z,0.00
2018-05-09T01:44:35.855Z,0.00
2018-05-09T01:45:35.871Z,0.00
2018-05-09T01:46:35.876Z,0.00
2018-05-09T01:47:35.896Z,0.00
2018-05-09T01:48:35.893Z,0.00
2018-05-09T01:49:35.904Z,0.00
2018-05-09T01:50:35.911Z,0.00
2018-05-09T01:51:35.918Z,0.00
2018-05-09T01:52:35.932Z,0.00
2018-05-09T01:53:35.944Z,0.00
2018-05-09T01:54:35.955Z,0.00
2018-05-09T01:55:35.971Z,0.00
2018-05-09T01:56:35.972Z,0.00
2018-05-09T01:57:35.981Z,0.00
2018-05-09T01:58:35.993Z,0.00
2018-05-09T01:59:36.009Z,0.00
2018-05-09T02:00:36.014Z,0.00
2018-05-09T02:01:36.025Z,0.00
2018-05-09T02:02:36.032Z,0.00
2018-05-09T02:03:36.053Z,0.00
2018-05-09T02:04:36.068Z,0.00
2018-05-09T02:05:36.068Z,0.00
2018-05-09T02:06:36.079Z,0.00
2018-05-09T02:07:36.103Z,0.00
2018-05-09T02:08:36.094Z,0.00
2018-05-09T02:09:36.112Z,0.00
2018-05-09T02:10:36.117Z,0.00
2018-05-09T02:11:36.125Z,0.00
2018-05-09T02:12:36.141Z,0.00
2018-05-09T02:13:36.158Z,0.00
2018-05-09T02:14:36.157Z,0.00
2018-05-09T02:15:36.183Z,0.00
2018-05-09T02:16:36.200Z,0.00
2018-05-09T02:17:36.199Z,0.00
2018-05-09T02:18:36.199Z,0.00
2018-05-09T02:19:36.209Z,0.00
2018-05-09T02:20:36.221Z,0.00
2018-05-09T02:21:36.232Z,0.00
2018-05-09T02:22:36.242Z,0.00
2018-05-09T02:23:36.260Z,0.00
2018-05-09T02:24:36.261Z,0.00
2018-05-09T02:25:36.280Z,0.00
2018-05-09T02:26:36.281Z,0.00
2018-05-09T02:27:36.287Z,0.00
2018-05-09T02:28:36.302Z,0.00
2018-05-09T02:29:36.318Z,0.00
2018-05-09T02:30:36.320Z,0.00
2018-05-09T02:31:36.337Z,0.00
2018-05-09T02:32:36.356Z,0.00
2018-05-09T02:33:36.372Z,0.00
2018-05-09T02:34:36.364Z,0.00
2018-05-09T02:35:36.375Z,0.00
2018-05-09T02:36:36.384Z,0.00
2018-05-09T02:37:36.396Z,0.00
2018-05-09T02:38:36.402Z,0.00
2018-05-09T02:39:36.436Z,0.00
2018-05-09T02:40:36.422Z,0.00
2018-05-09T02:41:36.430Z,0.00
2018-05-09T02:42:36.442Z,0.00
2018-05-09T02:43:36.460Z,0.00
2018-05-09T02:44:36.466Z,0.00
2018-05-09T02:45:36.473Z,0.00
2018-05-09T02:46:36.479Z,0.00
2018-05-09T02:47:36.498Z,0.00
2018-05-09T02:48:36.501Z,0.00
2018-05-09T02:49:36.516Z,0.00
2018-05-09T02:50:36.526Z,0.00
2018-05-09T02:51:36.531Z,0.00
2018-05-09T02:52:36.540Z,0.00
2018-05-09T02:53:36.561Z,0.00
2018-05-09T02:54:36.562Z,0.00
2018-05-09T02:55:36.573Z,0.00
2018-05-09T02:56:36.583Z,0.00
2018-05-09T02:57:36.605Z,0.00
2018-05-09T02:58:36.608Z,0.00
2018-05-09T02:59:36.611Z,0.00
2018-05-09T03:00:36.634Z,0.00
2018-05-09T03:01:36.637Z,0.00
2018-05-09T03:02:36.644Z,0.00
2018-05-09T03:03:36.666Z,0.00
2018-05-09T03:04:36.668Z,0.00
2018-05-09T03:05:36.675Z,0.00
2018-05-09T03:06:36.684Z,0.00
2018-05-09T03:07:36.698Z,0.00
2018-05-09T03:08:36.706Z,0.00
2018-05-09T03:09:36.711Z,0.00
2018-05-09T03:10:36.744Z,0.00
2018-05-09T03:11:36.730Z,0.00
2018-05-09T03:12:36.745Z,0.00
2018-05-09T03:13:36.769Z,0.00
2018-05-09T03:14:36.766Z,0.00
2018-05-09T03:15:36.781Z,0.00
2018-05-09T03:16:36.776Z,0.00
2018-05-09T03:17:36.791Z,0.00
2018-05-09T03:18:36.801Z,0.00
2018-05-09T03:19:36.808Z,4.00
2018-05-09T03:20:36.834Z,4.00
2018-05-09T03:21:36.829Z,0.00
2018-05-09T03:22:36.836Z,4.00
2018-05-09T03:23:36.852Z,4.00
2018-05-09T03:24:36.868Z,8.00
2018-05-09T03:25:36.935Z,4.00
2018-05-09T03:26:36.879Z,8.00
2018-05-09T03:27:36.893Z,8.00
2018-05-09T03:28:36.899Z,8.00
2018-05-09T03:29:36.911Z,12.00
2018-05-09T03:30:36.919Z,12.00
2018-05-09T03:31:36.929Z,16.00
2018-05-09T03:32:36.937Z,16.00
2018-05-09T03:33:36.959Z,20.00
2018-05-09T03:34:36.964Z,24.00
2018-05-09T03:35:36.969Z,24.00
2018-05-09T03:36:36.975Z,28.00
2018-05-09T03:37:36.985Z,32.00
2018-05-09T03:38:36.995Z,40.00
2018-05-09T03:39:37.006Z,48.00
2018-05-09T03:40:37.015Z,52.00
2018-05-09T03:41:37.022Z,60.00
2018-05-09T03:42:37.033Z,68.00
2018-05-09T03:43:37.049Z,76.00
2018-05-09T03:44:37.059Z,84.00
2018-05-09T03:45:37.069Z,96.00
2018-05-09T03:46:37.076Z,108.00
2018-05-09T03:47:37.082Z,120.00
2018-05-09T03:48:37.096Z,136.00
2018-05-09T03:49:37.103Z,148.00
2018-05-09T03:50:37.112Z,160.00
2018-05-09T03:51:37.120Z,176.00
2018-05-09T03:52:37.130Z,192.00
2018-05-09T03:53:37.147Z,212.00
2018-05-09T03:54:37.151Z,224.00
2018-05-09T03:55:37.160Z,244.00
2018-05-09T03:56:37.177Z,260.00
2018-05-09T03:57:37.189Z,280.00
2018-05-09T03:58:37.191Z,300.00
2018-05-09T03:59:37.197Z,320.00
2018-05-09T04:00:37.211Z,336.00
2018-05-09T04:01:37.227Z,356.00
2018-05-09T04:02:37.229Z,380.00
2018-05-09T04:03:37.239Z,400.00
2018-05-09T04:04:37.248Z,424.00
2018-05-09T04:05:37.270Z,440.00
2018-05-09T04:06:37.270Z,464.00
2018-05-09T04:07:37.284Z,488.00
2018-05-09T04:08:37.286Z,508.00
2018-05-09T04:09:37.343Z,528.00
2018-05-09T04:10:37.307Z,552.00
2018-05-09T04:11:37.421Z,572.00
2018-05-09T04:12:37.325Z,592.00
2018-05-09T04:13:37.340Z,616.00
2018-05-09T04:14:37.366Z,636.00
2018-05-09T04:15:37.352Z,656.00
2018-05-09T04:16:37.365Z,680.00
2018-05-09T04:17:37.400Z,704.00
2018-05-09T04:18:37.386Z,724.00
2018-05-09T04:19:37.392Z,744.00
2018-05-09T04:20:37.436Z,764.00
2018-05-09T04:21:37.412Z,784.00
2018-05-09T04:22:37.421Z,804.00
2018-05-09T04:23:37.620Z,824.00
2018-05-09T04:24:37.751Z,848.00
2018-05-09T04:25:37.452Z,868.00
2018-05-09T04:26:37.585Z,888.00
2018-05-09T04:27:37.472Z,904.00
2018-05-09T04:28:37.479Z,920.00
2018-05-09T04:29:37.492Z,944.00
2018-05-09T04:30:37.506Z,960.00
2018-05-09T04:31:37.531Z,980.00
2018-05-09T04:32:38.390Z,996.00
2018-05-09T04:33:38.391Z,1012.00
2018-05-09T04:34:37.736Z,1028.00
2018-05-09T04:35:37.870Z,1048.00
2018-05-09T04:36:37.557Z,1064.00
2018-05-09T04:37:37.623Z,1080.00
2018-05-09T04:38:37.586Z,1100.00
2018-05-09T04:39:37.591Z,1112.00
2018-05-09T04:40:37.960Z,1128.00
2018-05-09T04:41:37.609Z,1144.00
2018-05-09T04:42:37.621Z,1160.00
2018-05-09T04:43:37.653Z,1176.00
2018-05-09T04:44:37.635Z,1188.00
2018-05-09T04:45:37.642Z,1204.00
2018-05-09T04:46:37.655Z,1220.00
2018-05-09T04:47:37.669Z,1232.00
2018-05-09T04:48:37.673Z,1244.00
2018-05-09T04:49:37.681Z,1260.00
2018-05-09T04:50:37.711Z,1276.00
2018-05-09T04:51:37.701Z,1288.00
2018-05-09T04:52:37.714Z,1300.00
2018-05-09T04:53:37.719Z,1316.00
2018-05-09T04:54:37.748Z,1332.00
2018-05-09T04:55:37.858Z,1344.00
2018-05-09T04:56:37.749Z,1360.00
2018-05-09T04:57:37.759Z,1368.00
2018-05-09T04:58:37.767Z,1384.00
2018-05-09T04:59:37.778Z,1396.00
2018-05-09T05:00:37.789Z,1408.00
2018-05-09T05:01:37.796Z,1420.00
2018-05-09T05:02:37.824Z,1432.00
2018-05-09T05:03:37.816Z,1444.00
2018-05-09T05:04:37.833Z,1452.00
2018-05-09T05:05:37.839Z,1464.00
2018-05-09T05:06:37.850Z,1476.00
2018-05-09T05:07:37.859Z,1484.00
2018-05-09T05:08:37.865Z,1500.00
2018-05-09T05:09:37.875Z,1504.00
2018-05-09T05:10:37.884Z,1516.00
2018-05-09T05:11:37.894Z,1528.00
2018-05-09T05:12:37.910Z,1540.00
2018-05-09T05:13:37.911Z,1552.00
2018-05-09T05:14:37.948Z,1564.00
2018-05-09T05:15:37.953Z,1572.00
2018-05-09T05:16:37.947Z,1584.00
2018-05-09T05:17:37.953Z,1592.00
2018-05-09T05:18:37.963Z,1604.00
2018-05-09T05:19:37.976Z,1616.00
2018-05-09T05:20:37.983Z,1628.00
2018-05-09T05:21:37.991Z,1636.00
2018-05-09T05:22:38.014Z,1648.00
2018-05-09T05:23:38.027Z,1656.00
2018-05-09T05:24:38.020Z,1664.00
2018-05-09T05:25:38.056Z,1676.00
2018-05-09T05:26:38.038Z,1688.00
2018-05-09T05:27:38.050Z,1696.00
2018-05-09T05:28:38.061Z,1700.00
2018-05-09T05:29:38.078Z,1712.00
2018-05-09T05:30:38.086Z,1724.00
2018-05-09T05:31:38.095Z,1732.00
2018-05-09T05:32:38.100Z,1744.00
2018-05-09T05:33:38.108Z,1752.00
2018-05-09T05:34:38.121Z,1760.00
2018-05-09T05:35:38.169Z,1768.00
2018-05-09T05:36:38.140Z,1776.00
2018-05-09T05:37:38.155Z,1788.00
2018-05-09T05:38:38.164Z,1792.00
2018-05-09T05:39:38.171Z,1804.00
2018-05-09T05:40:38.182Z,1812.00
2018-05-09T05:41:38.193Z,1820.00
2018-05-09T05:42:38.227Z,1828.00
2018-05-09T05:43:38.208Z,1836.00
2018-05-09T05:44:38.228Z,1844.00
2018-05-09T05:45:38.235Z,1844.00
2018-05-09T05:46:38.238Z,1852.00
2018-05-09T05:47:38.249Z,1856.00
2018-05-09T05:48:38.260Z,1856.00
2018-05-09T05:49:38.283Z,1860.00
2018-05-09T05:50:38.302Z,1868.00
2018-05-09T05:51:38.290Z,1868.00
2018-05-09T05:52:38.314Z,1876.00
2018-05-09T05:53:38.312Z,1884.00
2018-05-09T05:54:38.352Z,1888.00
2018-05-09T05:55:38.327Z,1896.00
2018-05-09T05:56:38.338Z,1900.00
2018-05-09T05:57:38.349Z,1900.00
2018-05-09T05:58:38.369Z,1908.00
2018-05-09T05:59:38.371Z,1912.00
2018-05-09T06:00:38.388Z,1920.00
2018-05-09T06:01:38.391Z,1928.00
2018-05-09T06:02:38.401Z,1928.00
2018-05-09T06:03:38.415Z,1936.00
2018-05-09T06:04:38.423Z,1936.00
2018-05-09T06:05:38.432Z,1936.00
2018-05-09T06:06:38.443Z,1944.00
2018-05-09T06:07:38.478Z,1952.00
2018-05-09T06:08:38.503Z,1952.00
2018-05-09T06:09:38.474Z,1960.00
2018-05-09T06:10:38.483Z,1968.00
2018-05-09T06:11:38.503Z,1976.00
2018-05-09T06:12:38.507Z,1976.00
2018-05-09T06:13:38.520Z,1988.00
2018-05-09T06:14:38.537Z,1992.00
2018-05-09T06:15:38.545Z,1992.00
2018-05-09T06:16:38.554Z,1996.00
2018-05-09T06:17:38.556Z,2008.00
2018-05-09T06:18:38.568Z,2012.00
2018-05-09T06:19:38.577Z,2020.00
2018-05-09T06:20:38.589Z,2028.00
2018-05-09T06:21:38.622Z,2032.00
2018-05-09T06:22:38.610Z,2040.00
2018-05-09T06:23:38.635Z,2048.00
2018-05-09T06:24:38.627Z,2052.00
2018-05-09T06:25:38.642Z,2060.00
2018-05-09T06:26:38.652Z,2068.00
2018-05-09T06:27:38.663Z,2084.00
2018-05-09T06:28:38.671Z,2088.00
2018-05-09T06:29:38.685Z,2104.00
2018-05-09T06:30:38.695Z,2100.00
2018-05-09T06:31:38.704Z,2108.00
2018-05-09T06:32:38.745Z,2116.00
2018-05-09T06:33:38.753Z,2124.00
2018-05-09T06:34:38.743Z,2128.00
2018-05-09T06:35:38.756Z,2136.00
2018-05-09T06:36:38.757Z,2140.00
2018-05-09T06:37:38.843Z,2144.00
2018-05-09T06:38:38.799Z,2152.00
2018-05-09T06:39:38.790Z,2152.00
2018-05-09T06:40:38.804Z,2156.00
2018-05-09T06:41:38.812Z,2160.00
2018-05-09T06:42:38.828Z,2168.00
2018-05-09T06:43:38.902Z,2172.00
2018-05-09T06:44:38.843Z,2184.00
2018-05-09T06:45:38.853Z,2180.00
2018-05-09T06:46:38.865Z,2188.00
2018-05-09T06:47:38.902Z,2196.00
2018-05-09T06:48:38.887Z,2204.00
2018-05-09T06:49:38.979Z,2204.00
2018-05-09T06:50:38.910Z,2216.00
2018-05-09T06:51:38.923Z,2228.00
2018-05-09T06:52:38.939Z,2240.00
2018-05-09T06:53:38.947Z,2248.00
2018-05-09T06:54:38.952Z,2256.00
2018-05-09T06:55:38.966Z,2264.00
2018-05-09T06:56:38.975Z,2276.00
2018-05-09T06:57:39.421Z,2280.00
2018-05-09T06:58:38.999Z,2288.00
2018-05-09T06:59:39.017Z,2308.00
2018-05-09T07:00:39.018Z,2316.00
2018-05-09T07:01:39.039Z,2320.00
2018-05-09T07:02:39.045Z,2336.00
2018-05-09T07:03:39.059Z,2352.00
2018-05-09T07:04:39.063Z,2372.00
2018-05-09T07:05:39.073Z,2380.00
2018-05-09T07:06:39.311Z,2384.00
2018-05-09T07:07:39.103Z,2392.00
2018-05-09T07:08:39.111Z,2408.00
2018-05-09T07:09:39.123Z,2412.00
2018-05-09T07:10:39.152Z,2412.00
2018-05-09T07:11:39.141Z,2412.00
2018-05-09T07:12:39.201Z,2424.00
2018-05-09T07:13:39.165Z,2444.00
2018-05-09T07:14:39.180Z,2456.00
2018-05-09T07:15:39.187Z,2472.00
2018-05-09T07:16:39.200Z,2480.00
2018-05-09T07:17:39.392Z,2488.00
2018-05-09T07:18:39.221Z,2492.00
2018-05-09T07:19:39.229Z,2492.00
2018-05-09T07:20:39.240Z,2496.00
2018-05-09T07:21:39.281Z,2500.00
2018-05-09T07:22:39.291Z,2500.00
2018-05-09T07:23:39.277Z,2516.00
2018-05-09T07:24:39.393Z,2520.00
2018-05-09T07:25:39.297Z,2552.00
2018-05-09T07:26:39.316Z,2560.00
2018-05-09T07:27:39.325Z,2572.00
2018-05-09T07:28:39.364Z,2580.00
2018-05-09T07:29:39.343Z,2588.00
2018-05-09T07:30:39.365Z,2588.00
2018-05-09T07:31:39.366Z,2592.00
2018-05-09T07:32:39.383Z,2600.00
2018-05-09T07:33:39.400Z,2608.00
2018-05-09T07:34:39.400Z,2624.00
2018-05-09T07:35:39.421Z,2624.00
2018-05-09T07:36:39.423Z,2620.00
2018-05-09T07:37:39.438Z,2612.00
2018-05-09T07:38:39.447Z,2624.00
2018-05-09T07:39:39.461Z,2636.00
2018-05-09T07:40:39.496Z,2648.00
2018-05-09T07:41:39.480Z,2648.00
2018-05-09T07:42:39.515Z,2656.00
2018-05-09T07:43:39.534Z,2664.00
2018-05-09T07:44:39.517Z,2684.00
2018-05-09T07:45:39.525Z,2708.00
2018-05-09T07:46:39.535Z,2720.00
2018-05-09T07:47:39.645Z,2712.00
2018-05-09T07:48:39.563Z,2712.00
2018-05-09T07:49:39.569Z,2716.00
2018-05-09T07:50:39.591Z,2740.00
2018-05-09T07:51:39.601Z,2760.00
2018-05-09T07:52:39.615Z,2776.00
2018-05-09T07:53:39.624Z,2776.00
2018-05-09T07:54:39.667Z,2780.00
2018-05-09T07:55:39.649Z,2800.00
2018-05-09T07:56:39.668Z,2828.00
2018-05-09T07:57:39.666Z,2840.00
2018-05-09T07:58:39.676Z,2856.00
2018-05-09T07:59:39.692Z,2868.00
2018-05-09T08:00:39.707Z,2892.00
2018-05-09T08:01:39.727Z,2908.00
2018-05-09T08:02:39.726Z,2912.00
2018-05-09T08:03:39.740Z,2904.00
2018-05-09T08:04:39.747Z,2920.00
2018-05-09T08:05:39.758Z,2916.00
2018-05-09T08:06:39.776Z,2900.00
2018-05-09T08:07:39.793Z,2900.00
2018-05-09T08:08:39.799Z,2900.00
2018-05-09T08:09:39.805Z,2912.00
2018-05-09T08:10:39.819Z,2924.00
2018-05-09T08:11:39.832Z,2720.00
2018-05-09T08:12:39.843Z,2928.00
2018-05-09T08:13:39.855Z,2904.00
2018-05-09T08:14:39.869Z,2928.00
2018-05-09T08:15:39.878Z,2948.00
2018-05-09T08:16:39.892Z,2944.00
2018-05-09T08:17:39.933Z,2968.00
2018-05-09T08:18:39.917Z,2984.00
2018-05-09T08:19:39.961Z,3004.00
2018-05-09T08:20:39.937Z,2984.00
2018-05-09T08:21:39.955Z,3020.00
2018-05-09T08:22:39.962Z,3032.00
2018-05-09T08:23:39.982Z,3036.00
2018-05-09T08:24:39.986Z,3056.00
2018-05-09T08:25:40.048Z,3060.00
2018-05-09T08:26:40.014Z,3068.00
2018-05-09T08:27:47.870Z,3080.00
2018-05-09T08:29:33.613Z,3152.00
2018-05-09T08:30:33.496Z,3152.00
2018-05-09T08:32:38.121Z,3136.00
2018-05-09T08:33:38.032Z,3104.00
2018-05-09T08:35:42.576Z,3112.00
2018-05-09T08:36:42.669Z,3148.00
2018-05-09T08:38:47.339Z,3172.00
2018-05-09T08:39:47.088Z,3220.00
2018-05-09T08:41:51.622Z,3292.00
2018-05-09T08:42:51.674Z,3332.00
2018-05-09T08:44:56.107Z,3440.00
2018-05-09T08:45:56.263Z,3460.00
2018-05-09T08:48:00.760Z,3580.00
2018-05-09T08:49:00.601Z,3608.00
2018-05-09T08:51:05.187Z,3628.00
2018-05-09T08:52:05.127Z,3656.00
2018-05-09T08:54:09.725Z,3588.00
2018-05-09T08:55:09.627Z,3588.00
2018-05-09T08:57:14.154Z,3636.00
2018-05-09T08:58:14.264Z,3700.00
2018-05-09T09:00:07.822Z,3764.00
2018-05-09T09:01:07.577Z,3792.00
2018-05-09T09:03:12.100Z,3832.00
2018-05-09T09:04:12.189Z,3848.00
2018-05-09T09:06:16.616Z,3892.00
2018-05-09T09:07:16.790Z,3896.00
2018-05-09T09:09:20.636Z,3904.00
2018-05-09T09:10:20.727Z,3952.00
2018-05-09T09:12:25.251Z,3884.00
2018-05-09T09:13:25.124Z,3804.00
2018-05-09T09:15:30.307Z,3968.00
2018-05-09T09:16:29.706Z,3908.00
2018-05-09T09:18:34.188Z,3936.00
2018-05-09T09:19:34.143Z,3944.00
2018-05-09T09:21:38.272Z,3988.00
2018-05-09T09:22:38.208Z,3916.00
2018-05-09T09:24:42.805Z,3864.00
2018-05-09T09:25:42.722Z,3852.00
2018-05-09T09:27:47.360Z,4860.00
2018-05-09T09:28:47.224Z,4416.00
2018-05-09T09:30:51.816Z,4056.00
2018-05-09T09:31:51.737Z,3896.00
2018-05-09T09:33:56.248Z,3896.00
2018-05-09T09:34:56.339Z,3888.00
2018-05-09T09:35:56.313Z,3964.00
2018-05-09T09:36:56.373Z,4560.00
2018-05-09T09:37:56.278Z,4712.00
2018-05-09T09:38:56.292Z,4336.00
2018-05-09T09:39:56.322Z,4220.00
2018-05-09T09:40:56.319Z,4292.00
2018-05-09T09:41:56.328Z,4280.00
2018-05-09T09:42:56.342Z,4272.00
2018-05-09T09:43:56.352Z,4300.00
2018-05-09T09:44:56.369Z,4312.00
2018-05-09T09:45:56.393Z,4384.00
2018-05-09T09:46:56.395Z,4488.00
2018-05-09T09:47:56.409Z,4600.00
2018-05-09T09:48:56.418Z,4944.00
2018-05-09T09:49:56.429Z,5284.00
2018-05-09T09:50:56.460Z,5636.00
2018-05-09T09:51:56.486Z,5960.00
2018-05-09T09:52:56.472Z,6020.00
2018-05-09T09:53:56.485Z,6856.00
2018-05-09T09:54:56.544Z,6900.00
2018-05-09T09:55:56.549Z,6504.00
2018-05-09T09:56:56.546Z,6568.00
2018-05-09T09:57:56.544Z,7396.00
2018-05-09T09:58:56.630Z,7376.00
2018-05-09T09:59:56.945Z,7700.00
2018-05-09T10:00:56.589Z,8420.00
2018-05-09T10:01:56.615Z,8920.00
2018-05-09T10:02:56.683Z,9480.00
2018-05-09T10:03:56.813Z,9460.00
2018-05-09T10:04:56.654Z,9332.00
2018-05-09T10:05:56.703Z,9288.00
2018-05-09T10:06:56.716Z,9180.00
2018-05-09T10:07:56.708Z,8752.00
2018-05-09T10:08:56.742Z,8760.00
2018-05-09T10:09:56.872Z,8316.00
2018-05-09T10:10:56.861Z,8104.00
2018-05-09T10:11:56.930Z,7656.00
2018-05-09T10:12:56.897Z,7848.00
2018-05-09T10:13:56.780Z,7760.00
2018-05-09T10:14:56.804Z,9380.00
2018-05-09T10:15:56.848Z,10464.00
2018-05-09T10:16:56.958Z,10872.00
2018-05-09T10:17:56.920Z,10148.00
2018-05-09T10:18:56.920Z,11284.00
2018-05-09T10:19:56.965Z,12440.00
2018-05-09T10:20:56.872Z,11732.00
2018-05-09T10:21:57.275Z,12608.00
2018-05-09T10:22:56.917Z,12832.00
2018-05-09T10:23:56.945Z,12252.00
2018-05-09T10:24:56.936Z,12816.00
2018-05-09T10:25:56.936Z,12572.00
2018-05-09T10:26:57.193Z,11092.00
2018-05-09T10:27:56.986Z,10472.00
2018-05-09T10:28:56.992Z,11356.00
2018-05-09T10:29:57.126Z,11232.00
2018-05-09T10:30:57.133Z,10248.00
2018-05-09T10:31:57.025Z,8900.00
2018-05-09T10:32:57.032Z,9804.00
2018-05-09T10:33:57.087Z,10780.00
2018-05-09T10:34:57.177Z,10556.00
2018-05-09T10:35:57.188Z,9472.00
2018-05-09T10:36:57.121Z,9044.00
2018-05-09T10:37:57.162Z,8536.00
2018-05-09T10:38:57.115Z,8352.00
2018-05-09T10:39:57.187Z,9668.00
2018-05-09T10:40:57.150Z,10488.00
2018-05-09T10:41:57.157Z,10704.00
2018-05-09T10:42:57.196Z,10412.00
2018-05-09T10:43:57.248Z,10576.00
2018-05-09T10:44:57.279Z,10316.00
2018-05-09T10:45:57.277Z,11392.00
2018-05-09T10:46:57.307Z,13620.00
2018-05-09T10:47:57.245Z,14412.00
2018-05-09T10:48:57.280Z,14592.00
2018-05-09T10:49:57.330Z,14328.00
2018-05-09T10:50:57.305Z,13984.00
2018-05-09T10:51:57.337Z,13768.00
2018-05-09T10:52:57.514Z,13660.00
2018-05-09T10:53:57.350Z,14584.00
2018-05-09T10:54:57.346Z,14904.00
2018-05-09T10:55:57.374Z,13864.00
2018-05-09T10:56:57.374Z,13808.00
2018-05-09T10:57:57.409Z,14296.00
2018-05-09T10:58:57.442Z,13976.00
2018-05-09T10:59:57.458Z,12676.00
2018-05-09T11:00:57.537Z,11480.00
2018-05-09T11:01:57.501Z,10896.00
2018-05-09T11:02:57.517Z,10732.00
2018-05-09T11:03:57.506Z,10344.00
2018-05-09T11:04:57.773Z,9708.00
2018-05-09T11:05:57.771Z,10512.00
2018-05-09T11:06:57.544Z,10916.00
2018-05-09T11:07:57.699Z,9328.00
2018-05-09T11:08:57.596Z,8772.00
2018-05-09T11:09:57.577Z,9172.00
2018-05-09T11:10:57.594Z,9152.00
2018-05-09T11:11:58.207Z,9120.00
2018-05-09T11:12:57.691Z,10060.00
2018-05-09T11:13:57.838Z,11244.00
2018-05-09T11:14:57.675Z,13760.00
2018-05-09T11:15:57.673Z,12744.00
2018-05-09T11:16:57.683Z,11180.00
2018-05-09T11:17:57.753Z,97824.00
2018-05-09T11:18:57.721Z,87360.00
2018-05-09T11:19:57.731Z,121280.00
2018-05-09T11:20:57.839Z,116288.00
2018-05-09T11:21:57.764Z,116832.00
2018-05-09T11:22:57.788Z,117952.00
2018-05-09T11:23:57.801Z,116416.00
2018-05-09T11:24:57.818Z,112544.00
2018-05-09T11:25:58.311Z,111392.00
2018-05-09T11:26:57.857Z,113088.00
2018-05-09T11:27:57.877Z,111424.00
2018-05-09T11:28:57.896Z,107392.00
2018-05-09T11:29:58.221Z,104608.00
2018-05-09T11:30:57.936Z,109792.00
2018-05-09T11:31:57.957Z,105472.00
2018-05-09T11:32:57.981Z,109600.00
2018-05-09T11:33:58.001Z,102880.00
2018-05-09T11:34:58.026Z,112992.00
2018-05-09T11:35:58.047Z,125792.00
2018-05-09T11:36:58.071Z,127104.00
2018-05-09T11:37:58.093Z,124544.00
2018-05-09T11:38:58.120Z,122688.00
2018-05-09T11:39:58.145Z,123840.00
2018-05-09T11:40:58.162Z,124832.00
2018-05-09T11:41:58.187Z,125568.00
2018-05-09T11:42:58.212Z,127456.00
2018-05-09T11:43:58.234Z,125792.00
2018-05-09T11:44:58.295Z,119872.00
2018-05-09T11:45:58.294Z,114688.00
2018-05-09T11:46:58.320Z,114240.00
2018-05-09T11:47:58.334Z,112800.00
2018-05-09T11:48:58.357Z,109600.00
2018-05-09T11:49:58.390Z,110848.00
2018-05-09T11:50:58.408Z,113504.00
2018-05-09T11:51:58.711Z,123520.00
2018-05-09T11:52:58.461Z,126848.00
2018-05-09T11:53:58.485Z,123840.00
2018-05-09T11:54:58.511Z,114016.00
2018-05-09T11:55:58.534Z,97088.00
2018-05-09T11:56:58.582Z,81184.00
2018-05-09T11:57:58.605Z,70528.00
2018-05-09T11:58:58.616Z,77632.00
2018-05-09T11:59:58.643Z,91456.00
2018-05-09T12:00:58.666Z,109088.00
2018-05-09T12:01:58.693Z,117120.00
2018-05-09T12:02:58.722Z,114080.00
2018-05-09T12:03:58.744Z,110720.00
2018-05-09T12:04:58.783Z,99232.00
2018-05-09T12:05:58.802Z,92480.00
2018-05-09T12:06:58.827Z,81792.00
2018-05-09T12:07:58.861Z,77504.00
2018-05-09T12:08:58.881Z,83712.00
2018-05-09T12:09:58.908Z,44576.00
2018-05-09T12:10:58.966Z,88288.00
2018-05-09T12:11:58.964Z,95712.00
2018-05-09T12:12:58.991Z,103072.00
2018-05-09T12:13:59.018Z,110240.00
2018-05-09T12:14:59.044Z,105504.00
2018-05-09T12:15:59.078Z,104480.00
2018-05-09T12:16:59.099Z,101280.00
2018-05-09T12:17:59.126Z,103936.00
2018-05-09T12:18:59.163Z,113120.00
2018-05-09T12:19:59.196Z,115456.00
2018-05-09T12:20:59.209Z,120736.00
2018-05-09T12:21:59.236Z,104928.00
2018-05-09T12:22:59.279Z,100608.00
2018-05-09T12:23:59.291Z,112608.00
2018-05-09T12:24:59.331Z,108320.00
2018-05-09T12:25:59.351Z,113440.00
2018-05-09T12:26:59.386Z,125248.00
2018-05-09T12:27:59.402Z,121472.00
2018-05-09T12:28:59.438Z,116992.00
2018-05-09T12:29:59.469Z,100160.00
2018-05-09T12:30:59.491Z,90976.00
2018-05-09T12:31:59.516Z,87072.00
2018-05-09T12:32:59.543Z,62688.00
2018-05-09T12:33:59.571Z,107552.00
2018-05-09T12:34:59.600Z,115072.00
2018-05-09T12:35:59.629Z,122848.00
2018-05-09T12:37:00.391Z,122048.00
2018-05-09T12:37:59.812Z,81920.00
2018-05-09T12:39:00.701Z,58272.00
2018-05-09T12:39:59.748Z,65152.00
2018-05-09T12:40:59.844Z,94208.00
2018-05-09T12:42:00.979Z,92480.00
2018-05-09T12:42:59.829Z,101536.00
2018-05-09T12:43:59.852Z,105120.00
2018-05-09T12:44:59.882Z,98112.00